sensor_id;sensor_type;location;lat;lon;timestamp;P1;durP1;ratioP1;P2;durP2;ratioP2
27839;SDS011;15207;42.182;24.308;2022-11-04T00:01:41;44.10;;;20.80;;
27839;SDS011;15207;42.182;24.308;2022-11-04T00:04:08;43.00;;;21.10;;
27839;SDS011;15207;42.182;24.308;2022-11-04T00:06:35;43.00;;;20.20;;
27839;SDS011;15207;42.182;24.308;2022-11-04T00:11:28;44.00;;;21.55;;
27839;SDS011;15207;42.182;24.308;2022-11-04T00:19:21;43.35;;;21.85;;
27839;SDS011;15207;42.182;24.308;2022-11-04T00:21:47;38.80;;;20.70;;
27839;SDS011;15207;42.182;24.308;2022-11-04T00:27:13;48.40;;;24.40;;
27839;SDS011;15207;42.182;24.308;2022-11-04T00:30:19;62.20;;;26.00;;
27839;SDS011;15207;42.182;24.308;2022-11-04T00:32:45;53.35;;;23.20;;
27839;SDS011;15207;42.182;24.308;2022-11-04T00:35:29;58.75;;;25.60;;
27839;SDS011;15207;42.182;24.308;2022-11-04T00:40:20;46.70;;;22.95;;
27839;SDS011;15207;42.182;24.308;2022-11-04T00:42:45;51.20;;;23.40;;
27839;SDS011;15207;42.182;24.308;2022-11-04T00:45:11;51.10;;;23.60;;
27839;SDS011;15207;42.182;24.308;2022-11-04T00:47:36;47.20;;;22.50;;
27839;SDS011;15207;42.182;24.308;2022-11-04T00:50:02;42.35;;;21.40;;
27839;SDS011;15207;42.182;24.308;2022-11-04T00:52:28;45.10;;;23.40;;
27839;SDS011;15207;42.182;24.308;2022-11-04T00:54:54;40.45;;;21.60;;
27839;SDS011;15207;42.182;24.308;2022-11-04T00:57:19;47.70;;;22.50;;
27839;SDS011;15207;42.182;24.308;2022-11-04T00:59:45;42.00;;;20.60;;
27839;SDS011;15207;42.182;24.308;2022-11-04T01:02:11;39.40;;;21.10;;
27839;SDS011;15207;42.182;24.308;2022-11-04T01:07:03;42.83;;;19.97;;
27839;SDS011;15207;42.182;24.308;2022-11-04T01:09:28;36.10;;;20.30;;
27839;SDS011;15207;42.182;24.308;2022-11-04T01:11:54;42.53;;;20.45;;
27839;SDS011;15207;42.182;24.308;2022-11-04T01:14:20;42.10;;;21.60;;
27839;SDS011;15207;42.182;24.308;2022-11-04T01:16:47;38.80;;;19.40;;
27839;SDS011;15207;42.182;24.308;2022-11-04T01:19:13;38.77;;;19.87;;
27839;SDS011;15207;42.182;24.308;2022-11-04T01:21:39;39.58;;;20.90;;
27839;SDS011;15207;42.182;24.308;2022-11-04T01:24:05;37.30;;;20.10;;
27839;SDS011;15207;42.182;24.308;2022-11-04T01:26:30;41.00;;;20.90;;
27839;SDS011;15207;42.182;24.308;2022-11-04T01:33:49;48.80;;;22.83;;
27839;SDS011;15207;42.182;24.308;2022-11-04T01:36:16;43.03;;;23.20;;
27839;SDS011;15207;42.182;24.308;2022-11-04T01:38:42;43.80;;;23.10;;
27839;SDS011;15207;42.182;24.308;2022-11-04T01:41:09;47.15;;;21.85;;
27839;SDS011;15207;42.182;24.308;2022-11-04T01:46:24;43.15;;;23.10;;
27839;SDS011;15207;42.182;24.308;2022-11-04T01:51:58;45.00;;;22.33;;
27839;SDS011;15207;42.182;24.308;2022-11-04T01:54:28;38.60;;;20.20;;
27839;SDS011;15207;42.182;24.308;2022-11-04T01:56:55;38.40;;;20.20;;
27839;SDS011;15207;42.182;24.308;2022-11-04T01:59:24;49.60;;;21.92;;
27839;SDS011;15207;42.182;24.308;2022-11-04T02:01:54;39.30;;;20.90;;
27839;SDS011;15207;42.182;24.308;2022-11-04T02:04:20;45.60;;;22.45;;
27839;SDS011;15207;42.182;24.308;2022-11-04T02:06:53;48.35;;;22.05;;
27839;SDS011;15207;42.182;24.308;2022-11-04T02:11:50;48.40;;;22.00;;
27839;SDS011;15207;42.182;24.308;2022-11-04T02:14:35;45.70;;;21.70;;
27839;SDS011;15207;42.182;24.308;2022-11-04T02:25:15;44.90;;;20.80;;
27839;SDS011;15207;42.182;24.308;2022-11-04T02:27:57;37.20;;;19.92;;
27839;SDS011;15207;42.182;24.308;2022-11-04T02:30:26;48.95;;;21.60;;
27839;SDS011;15207;42.182;24.308;2022-11-04T02:33:19;40.00;;;20.40;;
27839;SDS011;15207;42.182;24.308;2022-11-04T02:46:01;44.00;;;22.00;;
27839;SDS011;15207;42.182;24.308;2022-11-04T02:48:48;40.70;;;20.90;;
27839;SDS011;15207;42.182;24.308;2022-11-04T02:51:30;49.30;;;23.30;;
27839;SDS011;15207;42.182;24.308;2022-11-04T02:54:04;53.53;;;23.83;;
27839;SDS011;15207;42.182;24.308;2022-11-04T02:56:45;56.53;;;23.83;;
27839;SDS011;15207;42.182;24.308;2022-11-04T03:02:26;45.25;;;22.15;;
27839;SDS011;15207;42.182;24.308;2022-11-04T03:04:57;50.80;;;23.20;;
27839;SDS011;15207;42.182;24.308;2022-11-04T03:07:27;44.23;;;23.20;;
27839;SDS011;15207;42.182;24.308;2022-11-04T03:09:57;54.65;;;25.20;;
27839;SDS011;15207;42.182;24.308;2022-11-04T03:12:28;54.05;;;24.00;;
27839;SDS011;15207;42.182;24.308;2022-11-04T03:15:03;48.00;;;22.75;;
27839;SDS011;15207;42.182;24.308;2022-11-04T03:17:39;54.80;;;24.75;;
27839;SDS011;15207;42.182;24.308;2022-11-04T03:20:13;50.65;;;24.50;;
27839;SDS011;15207;42.182;24.308;2022-11-04T03:22:45;46.15;;;24.00;;
27839;SDS011;15207;42.182;24.308;2022-11-04T03:25:11;48.90;;;23.50;;
27839;SDS011;15207;42.182;24.308;2022-11-04T03:30:36;49.60;;;23.15;;
27839;SDS011;15207;42.182;24.308;2022-11-04T03:33:17;43.90;;;22.95;;
27839;SDS011;15207;42.182;24.308;2022-11-04T03:36:11;44.80;;;22.90;;
27839;SDS011;15207;42.182;24.308;2022-11-04T03:38:37;47.60;;;23.30;;
27839;SDS011;15207;42.182;24.308;2022-11-04T03:41:05;48.85;;;22.90;;
27839;SDS011;15207;42.182;24.308;2022-11-04T03:43:36;46.55;;;23.55;;
27839;SDS011;15207;42.182;24.308;2022-11-04T03:46:04;83.80;;;30.90;;
27839;SDS011;15207;42.182;24.308;2022-11-04T03:48:30;102.55;;;36.60;;
27839;SDS011;15207;42.182;24.308;2022-11-04T03:50:57;90.80;;;35.30;;
27839;SDS011;15207;42.182;24.308;2022-11-04T03:53:23;95.33;;;36.80;;
27839;SDS011;15207;42.182;24.308;2022-11-04T03:56:10;116.20;;;39.08;;
27839;SDS011;15207;42.182;24.308;2022-11-04T04:04:01;59.90;;;26.00;;
27839;SDS011;15207;42.182;24.308;2022-11-04T04:06:39;56.15;;;25.65;;
27839;SDS011;15207;42.182;24.308;2022-11-04T04:14:24;47.00;;;21.60;;
27839;SDS011;15207;42.182;24.308;2022-11-04T04:17:10;47.10;;;21.70;;
27839;SDS011;15207;42.182;24.308;2022-11-04T04:20:05;42.90;;;21.00;;
27839;SDS011;15207;42.182;24.308;2022-11-04T04:22:36;40.65;;;20.70;;
27839;SDS011;15207;42.182;24.308;2022-11-04T04:25:08;44.70;;;20.05;;
27839;SDS011;15207;42.182;24.308;2022-11-04T04:30:21;44.53;;;20.00;;
27839;SDS011;15207;42.182;24.308;2022-11-04T04:35:21;35.70;;;19.80;;
27839;SDS011;15207;42.182;24.308;2022-11-04T04:38:07;37.70;;;21.45;;
27839;SDS011;15207;42.182;24.308;2022-11-04T04:41:00;36.30;;;20.20;;
27839;SDS011;15207;42.182;24.308;2022-11-04T04:46:33;40.25;;;19.73;;
27839;SDS011;15207;42.182;24.308;2022-11-04T04:51:33;48.78;;;20.77;;
27839;SDS011;15207;42.182;24.308;2022-11-04T04:54:04;45.30;;;20.60;;
27839;SDS011;15207;42.182;24.308;2022-11-04T04:56:30;42.90;;;21.15;;
27839;SDS011;15207;42.182;24.308;2022-11-04T04:58:56;43.20;;;21.33;;
27839;SDS011;15207;42.182;24.308;2022-11-04T05:01:21;52.05;;;22.67;;
27839;SDS011;15207;42.182;24.308;2022-11-04T05:06:12;40.10;;;19.40;;
27839;SDS011;15207;42.182;24.308;2022-11-04T05:08:38;35.95;;;19.75;;
27839;SDS011;15207;42.182;24.308;2022-11-04T05:11:04;38.92;;;19.33;;
27839;SDS011;15207;42.182;24.308;2022-11-04T05:13:29;43.10;;;19.27;;
27839;SDS011;15207;42.182;24.308;2022-11-04T05:16:01;42.40;;;18.55;;
27839;SDS011;15207;42.182;24.308;2022-11-04T05:18:28;38.33;;;20.45;;
27839;SDS011;15207;42.182;24.308;2022-11-04T05:20:54;34.50;;;19.73;;
27839;SDS011;15207;42.182;24.308;2022-11-04T05:23:20;37.10;;;20.50;;
27839;SDS011;15207;42.182;24.308;2022-11-04T05:25:45;36.80;;;19.10;;
27839;SDS011;15207;42.182;24.308;2022-11-04T05:28:11;36.30;;;18.55;;
27839;SDS011;15207;42.182;24.308;2022-11-04T05:30:37;37.10;;;18.80;;
27839;SDS011;15207;42.182;24.308;2022-11-04T05:33:03;43.20;;;21.20;;
27839;SDS011;15207;42.182;24.308;2022-11-04T05:35:29;34.10;;;20.40;;
27839;SDS011;15207;42.182;24.308;2022-11-04T05:37:54;41.27;;;20.03;;
27839;SDS011;15207;42.182;24.308;2022-11-04T05:42:46;34.50;;;20.55;;
27839;SDS011;15207;42.182;24.308;2022-11-04T05:47:37;40.37;;;19.80;;
27839;SDS011;15207;42.182;24.308;2022-11-04T05:50:03;49.50;;;20.30;;
27839;SDS011;15207;42.182;24.308;2022-11-04T05:52:29;48.50;;;19.90;;
27839;SDS011;15207;42.182;24.308;2022-11-04T05:54:54;37.40;;;19.63;;
27839;SDS011;15207;42.182;24.308;2022-11-04T05:57:20;33.60;;;19.40;;
27839;SDS011;15207;42.182;24.308;2022-11-04T05:59:46;45.92;;;20.95;;
27839;SDS011;15207;42.182;24.308;2022-11-04T06:02:11;241.20;;;30.70;;
27839;SDS011;15207;42.182;24.308;2022-11-04T06:04:37;169.03;;;26.17;;
27839;SDS011;15207;42.182;24.308;2022-11-04T06:07:02;58.70;;;20.50;;
27839;SDS011;15207;42.182;24.308;2022-11-04T06:09:28;73.20;;;20.70;;
27839;SDS011;15207;42.182;24.308;2022-11-04T06:14:36;37.05;;;18.25;;
27839;SDS011;15207;42.182;24.308;2022-11-04T06:17:02;44.37;;;17.63;;
27839;SDS011;15207;42.182;24.308;2022-11-04T06:19:28;31.65;;;16.90;;
27839;SDS011;15207;42.182;24.308;2022-11-04T06:21:54;34.80;;;17.10;;
27839;SDS011;15207;42.182;24.308;2022-11-04T06:24:20;45.45;;;17.45;;
27839;SDS011;15207;42.182;24.308;2022-11-04T06:26:45;58.37;;;16.77;;
27839;SDS011;15207;42.182;24.308;2022-11-04T06:29:11;27.75;;;15.20;;
27839;SDS011;15207;42.182;24.308;2022-11-04T06:34:02;39.55;;;16.90;;
27839;SDS011;15207;42.182;24.308;2022-11-04T06:38:54;35.40;;;15.65;;
27839;SDS011;15207;42.182;24.308;2022-11-04T06:41:20;29.55;;;15.60;;
27839;SDS011;15207;42.182;24.308;2022-11-04T06:43:46;35.05;;;15.70;;
27839;SDS011;15207;42.182;24.308;2022-11-04T06:46:28;35.95;;;16.00;;
27839;SDS011;15207;42.182;24.308;2022-11-04T06:49:08;36.70;;;15.20;;
27839;SDS011;15207;42.182;24.308;2022-11-04T06:51:39;28.40;;;15.30;;
27839;SDS011;15207;42.182;24.308;2022-11-04T06:54:04;32.90;;;16.10;;
27839;SDS011;15207;42.182;24.308;2022-11-04T06:58:56;33.70;;;15.85;;
27839;SDS011;15207;42.182;24.308;2022-11-04T07:01:23;36.00;;;15.50;;
27839;SDS011;15207;42.182;24.308;2022-11-04T07:03:52;33.10;;;13.80;;
27839;SDS011;15207;42.182;24.308;2022-11-04T07:06:20;32.75;;;16.30;;
27839;SDS011;15207;42.182;24.308;2022-11-04T07:08:46;40.45;;;16.15;;
27839;SDS011;15207;42.182;24.308;2022-11-04T07:11:14;45.67;;;16.77;;
27839;SDS011;15207;42.182;24.308;2022-11-04T07:13:40;35.45;;;17.00;;
27839;SDS011;15207;42.182;24.308;2022-11-04T07:16:06;32.40;;;16.20;;
27839;SDS011;15207;42.182;24.308;2022-11-04T07:18:33;32.90;;;17.10;;
27839;SDS011;15207;42.182;24.308;2022-11-04T07:20:59;36.25;;;17.05;;
27839;SDS011;15207;42.182;24.308;2022-11-04T07:23:26;30.47;;;16.47;;
27839;SDS011;15207;42.182;24.308;2022-11-04T07:25:52;30.80;;;16.90;;
27839;SDS011;15207;42.182;24.308;2022-11-04T07:28:20;27.60;;;16.25;;
27839;SDS011;15207;42.182;24.308;2022-11-04T07:33:11;38.80;;;16.60;;
27839;SDS011;15207;42.182;24.308;2022-11-04T07:35:37;34.50;;;18.80;;
27839;SDS011;15207;42.182;24.308;2022-11-04T07:38:03;40.30;;;18.60;;
27839;SDS011;15207;42.182;24.308;2022-11-04T07:40:29;38.90;;;17.50;;
27839;SDS011;15207;42.182;24.308;2022-11-04T07:42:59;40.20;;;19.45;;
27839;SDS011;15207;42.182;24.308;2022-11-04T07:47:50;46.10;;;22.20;;
27839;SDS011;15207;42.182;24.308;2022-11-04T07:50:16;39.00;;;23.60;;
27839;SDS011;15207;42.182;24.308;2022-11-04T07:52:41;44.80;;;24.00;;
27839;SDS011;15207;42.182;24.308;2022-11-04T07:55:07;51.07;;;25.47;;
27839;SDS011;15207;42.182;24.308;2022-11-04T07:57:34;56.35;;;27.98;;
27839;SDS011;15207;42.182;24.308;2022-11-04T08:00:00;46.50;;;24.30;;
27839;SDS011;15207;42.182;24.308;2022-11-04T08:02:26;45.63;;;24.58;;
27839;SDS011;15207;42.182;24.308;2022-11-04T08:04:51;42.75;;;23.65;;
27839;SDS011;15207;42.182;24.308;2022-11-04T08:07:17;60.20;;;25.10;;
27839;SDS011;15207;42.182;24.308;2022-11-04T08:09:42;50.10;;;23.50;;
27839;SDS011;15207;42.182;24.308;2022-11-04T08:14:33;42.10;;;23.80;;
27839;SDS011;15207;42.182;24.308;2022-11-04T08:17:00;42.33;;;23.35;;
27839;SDS011;15207;42.182;24.308;2022-11-04T08:19:26;53.80;;;23.50;;
27839;SDS011;15207;42.182;24.308;2022-11-04T08:21:51;43.10;;;23.10;;
27839;SDS011;15207;42.182;24.308;2022-11-04T08:26:43;44.08;;;23.33;;
27839;SDS011;15207;42.182;24.308;2022-11-04T08:29:10;43.40;;;24.40;;
27839;SDS011;15207;42.182;24.308;2022-11-04T08:31:35;56.50;;;24.00;;
27839;SDS011;15207;42.182;24.308;2022-11-04T08:36:29;44.90;;;24.50;;
27839;SDS011;15207;42.182;24.308;2022-11-04T08:41:25;53.30;;;24.00;;
27839;SDS011;15207;42.182;24.308;2022-11-04T08:43:54;45.90;;;23.40;;
27839;SDS011;15207;42.182;24.308;2022-11-04T08:46:20;50.75;;;24.00;;
27839;SDS011;15207;42.182;24.308;2022-11-04T08:48:46;58.70;;;23.30;;
27839;SDS011;15207;42.182;24.308;2022-11-04T08:51:24;45.45;;;22.40;;
27839;SDS011;15207;42.182;24.308;2022-11-04T08:53:51;37.50;;;22.50;;
27839;SDS011;15207;42.182;24.308;2022-11-04T08:56:21;89.30;;;26.00;;
27839;SDS011;15207;42.182;24.308;2022-11-04T08:58:49;48.20;;;22.30;;
27839;SDS011;15207;42.182;24.308;2022-11-04T09:03:41;41.20;;;23.60;;
27839;SDS011;15207;42.182;24.308;2022-11-04T09:06:08;51.47;;;23.52;;
27839;SDS011;15207;42.182;24.308;2022-11-04T09:08:36;45.88;;;22.83;;
27839;SDS011;15207;42.182;24.308;2022-11-04T09:11:06;39.60;;;21.40;;
27839;SDS011;15207;42.182;24.308;2022-11-04T09:13:34;40.30;;;22.80;;
27839;SDS011;15207;42.182;24.308;2022-11-04T09:16:00;43.20;;;22.80;;
27839;SDS011;15207;42.182;24.308;2022-11-04T09:18:26;40.00;;;22.10;;
27839;SDS011;15207;42.182;24.308;2022-11-04T09:20:52;40.80;;;22.40;;
27839;SDS011;15207;42.182;24.308;2022-11-04T09:23:18;44.10;;;22.15;;
27839;SDS011;15207;42.182;24.308;2022-11-04T09:25:43;44.00;;;24.40;;
27839;SDS011;15207;42.182;24.308;2022-11-04T09:28:09;42.70;;;24.80;;
27839;SDS011;15207;42.182;24.308;2022-11-04T09:30:35;40.60;;;24.70;;
27839;SDS011;15207;42.182;24.308;2022-11-04T09:33:02;44.40;;;24.40;;
27839;SDS011;15207;42.182;24.308;2022-11-04T09:35:28;41.55;;;23.85;;
27839;SDS011;15207;42.182;24.308;2022-11-04T09:37:54;40.40;;;24.37;;
27839;SDS011;15207;42.182;24.308;2022-11-04T09:40:21;45.20;;;24.50;;
27839;SDS011;15207;42.182;24.308;2022-11-04T09:45:21;54.60;;;24.80;;
27839;SDS011;15207;42.182;24.308;2022-11-04T09:47:53;48.72;;;24.88;;
27839;SDS011;15207;42.182;24.308;2022-11-04T09:50:27;44.15;;;23.38;;
27839;SDS011;15207;42.182;24.308;2022-11-04T09:58:40;55.30;;;25.40;;
27839;SDS011;15207;42.182;24.308;2022-11-04T10:11:39;43.60;;;23.35;;
27839;SDS011;15207;42.182;24.308;2022-11-04T10:32:30;44.40;;;23.75;;
27839;SDS011;15207;42.182;24.308;2022-11-04T10:37:50;44.92;;;23.02;;
27839;SDS011;15207;42.182;24.308;2022-11-04T10:40:28;43.05;;;21.90;;
27839;SDS011;15207;42.182;24.308;2022-11-04T10:48:07;40.30;;;21.15;;
27839;SDS011;15207;42.182;24.308;2022-11-04T11:03:52;55.58;;;24.40;;
27839;SDS011;15207;42.182;24.308;2022-11-04T11:06:23;40.10;;;22.30;;
27839;SDS011;15207;42.182;24.308;2022-11-04T11:16:40;37.20;;;22.95;;
27839;SDS011;15207;42.182;24.308;2022-11-04T11:19:13;41.30;;;22.30;;
27839;SDS011;15207;42.182;24.308;2022-11-04T11:21:42;39.38;;;21.30;;
27839;SDS011;15207;42.182;24.308;2022-11-04T11:26:58;38.30;;;21.35;;
27839;SDS011;15207;42.182;24.308;2022-11-04T11:29:28;42.80;;;21.85;;
27839;SDS011;15207;42.182;24.308;2022-11-04T11:32:04;39.50;;;21.15;;
27839;SDS011;15207;42.182;24.308;2022-11-04T11:37:15;42.50;;;22.40;;
27839;SDS011;15207;42.182;24.308;2022-11-04T11:39:46;37.60;;;21.75;;
27839;SDS011;15207;42.182;24.308;2022-11-04T11:42:12;45.70;;;23.60;;
27839;SDS011;15207;42.182;24.308;2022-11-04T11:52:39;39.97;;;22.55;;
27839;SDS011;15207;42.182;24.308;2022-11-04T12:00:13;39.90;;;21.67;;
27839;SDS011;15207;42.182;24.308;2022-11-04T12:03:05;38.90;;;23.50;;
27839;SDS011;15207;42.182;24.308;2022-11-04T12:05:40;43.95;;;23.70;;
27839;SDS011;15207;42.182;24.308;2022-11-04T12:11:04;43.70;;;22.73;;
27839;SDS011;15207;42.182;24.308;2022-11-04T12:13:52;45.30;;;23.03;;
27839;SDS011;15207;42.182;24.308;2022-11-04T12:16:27;50.10;;;22.80;;
27839;SDS011;15207;42.182;24.308;2022-11-04T12:19:14;41.00;;;21.75;;
27839;SDS011;15207;42.182;24.308;2022-11-04T12:30:25;39.60;;;21.43;;
27839;SDS011;15207;42.182;24.308;2022-11-04T12:32:54;42.42;;;22.05;;
27839;SDS011;15207;42.182;24.308;2022-11-04T12:58:00;48.40;;;21.80;;
27839;SDS011;15207;42.182;24.308;2022-11-04T13:00:30;48.70;;;22.60;;
27839;SDS011;15207;42.182;24.308;2022-11-04T13:11:16;40.08;;;22.15;;
27839;SDS011;15207;42.182;24.308;2022-11-04T13:13:52;43.60;;;23.00;;
27839;SDS011;15207;42.182;24.308;2022-11-04T13:16:30;38.90;;;21.60;;
27839;SDS011;15207;42.182;24.308;2022-11-04T13:18:59;49.42;;;22.38;;
27839;SDS011;15207;42.182;24.308;2022-11-04T13:21:26;43.58;;;22.50;;
27839;SDS011;15207;42.182;24.308;2022-11-04T13:26:28;43.70;;;21.75;;
27839;SDS011;15207;42.182;24.308;2022-11-04T13:29:14;43.20;;;23.10;;
27839;SDS011;15207;42.182;24.308;2022-11-04T13:34:23;39.70;;;23.35;;
27839;SDS011;15207;42.182;24.308;2022-11-04T13:42:23;40.40;;;23.40;;
27839;SDS011;15207;42.182;24.308;2022-11-04T13:44:56;52.70;;;25.00;;
27839;SDS011;15207;42.182;24.308;2022-11-04T13:47:43;44.03;;;23.40;;
27839;SDS011;15207;42.182;24.308;2022-11-04T13:50:34;45.80;;;22.30;;
27839;SDS011;15207;42.182;24.308;2022-11-04T13:53:03;43.55;;;22.45;;
27839;SDS011;15207;42.182;24.308;2022-11-04T13:57:57;47.85;;;24.05;;
27839;SDS011;15207;42.182;24.308;2022-11-04T14:00:26;43.65;;;22.30;;
27839;SDS011;15207;42.182;24.308;2022-11-04T14:02:54;45.40;;;22.63;;
27839;SDS011;15207;42.182;24.308;2022-11-04T14:18:37;47.10;;;23.48;;
27839;SDS011;15207;42.182;24.308;2022-11-04T14:21:06;47.00;;;24.90;;
27839;SDS011;15207;42.182;24.308;2022-11-04T14:26:05;58.25;;;29.38;;
27839;SDS011;15207;42.182;24.308;2022-11-04T14:31:09;77.80;;;35.90;;
27839;SDS011;15207;42.182;24.308;2022-11-04T14:33:38;80.50;;;33.30;;
27839;SDS011;15207;42.182;24.308;2022-11-04T14:36:15;104.90;;;41.70;;
27839;SDS011;15207;42.182;24.308;2022-11-04T14:38:51;109.35;;;44.70;;
27839;SDS011;15207;42.182;24.308;2022-11-04T14:41:29;109.30;;;43.80;;
27839;SDS011;15207;42.182;24.308;2022-11-04T14:52:26;127.28;;;48.17;;
27839;SDS011;15207;42.182;24.308;2022-11-04T14:55:12;104.30;;;40.60;;
27839;SDS011;15207;42.182;24.308;2022-11-04T14:57:46;87.75;;;34.85;;
27839;SDS011;15207;42.182;24.308;2022-11-04T15:00:56;82.15;;;31.17;;
27839;SDS011;15207;42.182;24.308;2022-11-04T15:05:49;87.27;;;39.80;;
27839;SDS011;15207;42.182;24.308;2022-11-04T15:13:31;93.97;;;41.42;;
27839;SDS011;15207;42.182;24.308;2022-11-04T15:23:28;77.50;;;33.50;;
27839;SDS011;15207;42.182;24.308;2022-11-04T15:26:00;111.47;;;34.20;;
27839;SDS011;15207;42.182;24.308;2022-11-04T15:28:28;77.25;;;32.15;;
27839;SDS011;15207;42.182;24.308;2022-11-04T15:33:36;65.45;;;28.42;;
27839;SDS011;15207;42.182;24.308;2022-11-04T15:36:06;62.33;;;27.45;;
27839;SDS011;15207;42.182;24.308;2022-11-04T15:38:36;63.40;;;26.80;;
27839;SDS011;15207;42.182;24.308;2022-11-04T15:41:05;70.80;;;27.60;;
27839;SDS011;15207;42.182;24.308;2022-11-04T15:43:50;66.00;;;26.90;;
27839;SDS011;15207;42.182;24.308;2022-11-04T15:46:16;71.20;;;28.10;;
27839;SDS011;15207;42.182;24.308;2022-11-04T15:48:57;69.00;;;27.10;;
27839;SDS011;15207;42.182;24.308;2022-11-04T15:53:52;91.10;;;29.60;;
27839;SDS011;15207;42.182;24.308;2022-11-04T15:56:23;77.30;;;30.90;;
27839;SDS011;15207;42.182;24.308;2022-11-04T15:58:52;76.25;;;29.45;;
27839;SDS011;15207;42.182;24.308;2022-11-04T16:01:19;74.30;;;29.30;;
27839;SDS011;15207;42.182;24.308;2022-11-04T16:06:13;78.80;;;31.40;;
27839;SDS011;15207;42.182;24.308;2022-11-04T16:11:12;94.60;;;41.95;;
27839;SDS011;15207;42.182;24.308;2022-11-04T16:18:51;146.43;;;77.37;;
27839;SDS011;15207;42.182;24.308;2022-11-04T16:21:21;144.90;;;77.05;;
27839;SDS011;15207;42.182;24.308;2022-11-04T16:23:59;141.35;;;72.45;;
27839;SDS011;15207;42.182;24.308;2022-11-04T16:26:41;136.80;;;71.45;;
27839;SDS011;15207;42.182;24.308;2022-11-04T16:29:17;132.50;;;66.70;;
27839;SDS011;15207;42.182;24.308;2022-11-04T16:34:38;132.65;;;63.80;;
27839;SDS011;15207;42.182;24.308;2022-11-04T16:37:03;132.30;;;66.30;;
27839;SDS011;15207;42.182;24.308;2022-11-04T16:39:29;138.23;;;66.78;;
27839;SDS011;15207;42.182;24.308;2022-11-04T16:41:56;143.90;;;68.20;;
27839;SDS011;15207;42.182;24.308;2022-11-04T16:44:22;144.70;;;65.05;;
27839;SDS011;15207;42.182;24.308;2022-11-04T16:46:49;169.70;;;69.50;;
27839;SDS011;15207;42.182;24.308;2022-11-04T16:49:16;139.95;;;68.65;;
27839;SDS011;15207;42.182;24.308;2022-11-04T16:54:10;142.55;;;69.55;;
27839;SDS011;15207;42.182;24.308;2022-11-04T16:56:35;138.23;;;67.07;;
27839;SDS011;15207;42.182;24.308;2022-11-04T16:59:04;131.85;;;65.55;;
27839;SDS011;15207;42.182;24.308;2022-11-04T17:01:30;146.55;;;63.90;;
27839;SDS011;15207;42.182;24.308;2022-11-04T17:03:56;125.28;;;60.15;;
27839;SDS011;15207;42.182;24.308;2022-11-04T17:06:24;130.10;;;60.90;;
27839;SDS011;15207;42.182;24.308;2022-11-04T17:08:50;113.55;;;54.92;;
27839;SDS011;15207;42.182;24.308;2022-11-04T17:11:15;108.80;;;53.10;;
27839;SDS011;15207;42.182;24.308;2022-11-04T17:16:08;110.10;;;48.97;;
27839;SDS011;15207;42.182;24.308;2022-11-04T17:18:37;101.35;;;48.00;;
27839;SDS011;15207;42.182;24.308;2022-11-04T17:21:06;93.90;;;46.50;;
27839;SDS011;15207;42.182;24.308;2022-11-04T17:26:01;107.60;;;45.17;;
27839;SDS011;15207;42.182;24.308;2022-11-04T17:33:21;94.00;;;42.30;;
27839;SDS011;15207;42.182;24.308;2022-11-04T17:35:48;85.60;;;41.00;;
27839;SDS011;15207;42.182;24.308;2022-11-04T17:38:16;83.65;;;38.83;;
27839;SDS011;15207;42.182;24.308;2022-11-04T17:40:42;79.70;;;39.50;;
27839;SDS011;15207;42.182;24.308;2022-11-04T17:46:11;80.55;;;41.15;;
27839;SDS011;15207;42.182;24.308;2022-11-04T17:48:56;73.70;;;40.00;;
27839;SDS011;15207;42.182;24.308;2022-11-04T17:51:22;79.50;;;42.50;;
27839;SDS011;15207;42.182;24.308;2022-11-04T17:53:48;92.05;;;39.75;;
27839;SDS011;15207;42.182;24.308;2022-11-04T17:56:14;95.20;;;41.30;;
27839;SDS011;15207;42.182;24.308;2022-11-04T17:58:41;85.70;;;40.85;;
27839;SDS011;15207;42.182;24.308;2022-11-04T18:01:08;81.30;;;40.00;;
27839;SDS011;15207;42.182;24.308;2022-11-04T18:03:35;88.00;;;40.10;;
27839;SDS011;15207;42.182;24.308;2022-11-04T18:06:01;82.40;;;39.65;;
27839;SDS011;15207;42.182;24.308;2022-11-04T18:08:27;82.20;;;39.90;;
27839;SDS011;15207;42.182;24.308;2022-11-04T18:10:56;84.55;;;39.55;;
27839;SDS011;15207;42.182;24.308;2022-11-04T18:13:23;94.90;;;42.80;;
27839;SDS011;15207;42.182;24.308;2022-11-04T18:15:49;90.60;;;40.30;;
27839;SDS011;15207;42.182;24.308;2022-11-04T18:18:14;83.70;;;40.40;;
27839;SDS011;15207;42.182;24.308;2022-11-04T18:20:41;80.70;;;39.20;;
27839;SDS011;15207;42.182;24.308;2022-11-04T18:23:07;74.20;;;37.40;;
27839;SDS011;15207;42.182;24.308;2022-11-04T18:25:32;85.00;;;40.40;;
27839;SDS011;15207;42.182;24.308;2022-11-04T18:27:58;92.90;;;46.60;;
27839;SDS011;15207;42.182;24.308;2022-11-04T18:30:25;115.90;;;53.00;;
27839;SDS011;15207;42.182;24.308;2022-11-04T18:32:51;115.90;;;54.80;;
27839;SDS011;15207;42.182;24.308;2022-11-04T18:35:17;107.50;;;51.10;;
27839;SDS011;15207;42.182;24.308;2022-11-04T18:37:43;96.60;;;46.88;;
27839;SDS011;15207;42.182;24.308;2022-11-04T18:40:09;89.85;;;43.75;;
27839;SDS011;15207;42.182;24.308;2022-11-04T18:42:35;89.40;;;43.50;;
27839;SDS011;15207;42.182;24.308;2022-11-04T18:45:01;94.40;;;45.00;;
27839;SDS011;15207;42.182;24.308;2022-11-04T18:47:27;93.90;;;44.53;;
27839;SDS011;15207;42.182;24.308;2022-11-04T18:49:52;97.25;;;45.35;;
27839;SDS011;15207;42.182;24.308;2022-11-04T18:54:44;92.20;;;46.60;;
27839;SDS011;15207;42.182;24.308;2022-11-04T18:57:10;98.10;;;47.78;;
27839;SDS011;15207;42.182;24.308;2022-11-04T18:59:36;98.60;;;48.10;;
27839;SDS011;15207;42.182;24.308;2022-11-04T19:02:03;87.10;;;46.50;;
27839;SDS011;15207;42.182;24.308;2022-11-04T19:04:29;97.90;;;48.40;;
27839;SDS011;15207;42.182;24.308;2022-11-04T19:06:55;98.40;;;47.70;;
27839;SDS011;15207;42.182;24.308;2022-11-04T19:09:21;97.45;;;48.03;;
27839;SDS011;15207;42.182;24.308;2022-11-04T19:11:46;97.05;;;46.05;;
27839;SDS011;15207;42.182;24.308;2022-11-04T19:14:32;97.35;;;44.10;;
27839;SDS011;15207;42.182;24.308;2022-11-04T19:16:58;96.50;;;46.30;;
27839;SDS011;15207;42.182;24.308;2022-11-04T19:19:24;101.77;;;47.10;;
27839;SDS011;15207;42.182;24.308;2022-11-04T19:21:50;92.77;;;48.77;;
27839;SDS011;15207;42.182;24.308;2022-11-04T19:24:16;91.07;;;48.05;;
27839;SDS011;15207;42.182;24.308;2022-11-04T19:26:42;99.00;;;49.90;;
27839;SDS011;15207;42.182;24.308;2022-11-04T19:29:08;104.60;;;49.60;;
27839;SDS011;15207;42.182;24.308;2022-11-04T19:31:34;107.40;;;49.20;;
27839;SDS011;15207;42.182;24.308;2022-11-04T19:36:28;100.45;;;47.60;;
27839;SDS011;15207;42.182;24.308;2022-11-04T19:38:56;102.70;;;48.28;;
27839;SDS011;15207;42.182;24.308;2022-11-04T19:41:22;88.67;;;46.13;;
27839;SDS011;15207;42.182;24.308;2022-11-04T19:44:11;97.38;;;47.22;;
27839;SDS011;15207;42.182;24.308;2022-11-04T19:46:38;101.90;;;46.75;;
27839;SDS011;15207;42.182;24.308;2022-11-04T19:49:04;92.90;;;47.10;;
27839;SDS011;15207;42.182;24.308;2022-11-04T19:51:32;100.23;;;48.53;;